createdAt,value
2022-08-28T00:00:13.744Z,99965.30
2022-08-28T00:03:01.284Z,99968.69
2022-08-28T00:05:31.978Z,99968.79
2022-08-28T00:08:00.416Z,99968.52
2022-08-28T00:10:28.505Z,99966.22
2022-08-28T00:12:57.673Z,99965.42
2022-08-28T00:15:31.606Z,99964.17
2022-08-28T00:17:59.387Z,99964.34
2022-08-28T00:20:28.460Z,99969.30
2022-08-28T00:22:56.113Z,99972.02
2022-08-28T00:25:26.082Z,99974.42
2022-08-28T00:28:01.315Z,99976.77
2022-08-28T00:30:35.986Z,99976.98
2022-08-28T00:33:13.929Z,99975.05
2022-08-28T00:35:43.051Z,99972.17
2022-08-28T00:38:12.184Z,99969.02
2022-08-28T00:40:44.168Z,99969.36
2022-08-28T00:43:37.886Z,99969.75
2022-08-28T00:46:13.021Z,99975.70
2022-08-28T00:48:40.216Z,99979.27
2022-08-28T00:51:26.816Z,99975.80
2022-08-28T00:53:58.733Z,99978.63
2022-08-28T00:56:29.465Z,99978.09
2022-08-28T00:59:02.565Z,99976.92
2022-08-28T01:01:29.613Z,99980.09
2022-08-28T01:03:56.754Z,99985.55
2022-08-28T01:06:24.138Z,99986.18
2022-08-28T01:08:53.296Z,99984.86
2022-08-28T01:11:21.115Z,99985.56
2022-08-28T01:13:50.603Z,99987.17
2022-08-28T01:16:19.547Z,99986.62
2022-08-28T01:18:49.222Z,99986.13
2022-08-28T01:21:36.347Z,99986.86
2022-08-28T01:24:11.337Z,99985.96
2022-08-28T01:26:38.492Z,99989.46
2022-08-28T01:29:08.068Z,99987.85
2022-08-28T01:31:37.425Z,99987.17
2022-08-28T01:34:07.122Z,99981.98
2022-08-28T01:36:34.691Z,99982.83
2022-08-28T01:39:24.090Z,99981.21
2022-08-28T01:41:54.235Z,99982.45
2022-08-28T01:44:25.190Z,99981.67
2022-08-28T01:46:55.705Z,99979.29
2022-08-28T01:49:24.579Z,99975.77
2022-08-28T01:51:52.338Z,99977.50
2022-08-28T01:54:22.219Z,99975.45
2022-08-28T01:56:49.512Z,99972.64
2022-08-28T01:59:17.750Z,99975.70
2022-08-28T02:01:44.873Z,99974.27
2022-08-28T02:04:12.517Z,99975.92
2022-08-28T02:06:41.201Z,99977.90
2022-08-28T02:09:14.589Z,99982.73
2022-08-28T02:11:42.869Z,99984.38
2022-08-28T02:14:14.592Z,99984.61
2022-08-28T02:16:41.709Z,99982.89
2022-08-28T02:19:09.641Z,99980.38
2022-08-28T02:21:36.722Z,99974.66
2022-08-28T02:24:04.469Z,99966.32
2022-08-28T02:26:33.159Z,99970.20
2022-08-28T02:29:01.324Z,99966.79
2022-08-28T02:31:38.152Z,99970.51
2022-08-28T02:34:05.870Z,99973.21
2022-08-28T02:36:33.287Z,99973.34
2022-08-28T02:39:00.824Z,99979.13
2022-08-28T02:41:27.856Z,99979.73
2022-08-28T02:43:54.877Z,99978.17
2022-08-28T02:46:21.984Z,99980.39
2022-08-28T02:48:49.831Z,99984.11
2022-08-28T02:51:17.528Z,99984.66
2022-08-28T02:53:44.523Z,99985.41
2022-08-28T02:56:11.896Z,99982.04
2022-08-28T02:58:40.141Z,99983.80
2022-08-28T03:01:10.427Z,99982.05
2022-08-28T03:03:39.207Z,99985.21
2022-08-28T03:06:14.055Z,99985.82
2022-08-28T03:08:43.263Z,99992.86
2022-08-28T03:11:11.539Z,99993.02
2022-08-28T03:13:38.730Z,99996.05
2022-08-28T03:16:06.014Z,99995.87
2022-08-28T03:18:33.198Z,99996.85
2022-08-28T03:21:00.427Z,99996.39
2022-08-28T03:23:27.552Z,99997.33
2022-08-28T03:26:05.578Z,99999.45
2022-08-28T03:28:39.754Z,99998.29
2022-08-28T03:31:09.563Z,100001.85
2022-08-28T03:33:37.258Z,100004.27
2022-08-28T03:36:05.687Z,100003.58
2022-08-28T03:38:33.399Z,100003.13
2022-08-28T03:41:01.212Z,100005.16
2022-08-28T03:43:28.591Z,100006.39
2022-08-28T03:46:02.251Z,100007.39
2022-08-28T03:48:36.493Z,100010.36
2022-08-28T03:51:13.294Z,100011.17
2022-08-28T03:53:41.853Z,100011.48
2022-08-28T03:56:16.746Z,100013.44
2022-08-28T03:58:44.526Z,100016.73
2022-08-28T04:01:11.689Z,100014.41
2022-08-28T04:03:39.000Z,100015.65
2022-08-28T04:06:06.935Z,100018.15
2022-08-28T04:08:34.037Z,100024.56
2022-08-28T04:11:01.290Z,100023.92
2022-08-28T04:13:29.114Z,100022.44
2022-08-28T04:16:10.011Z,100025.70
2022-08-28T04:18:40.468Z,100028.05
2022-08-28T04:21:15.164Z,100030.91
2022-08-28T04:23:44.412Z,100035.70
2022-08-28T04:26:22.025Z,100031.38
2022-08-28T04:28:52.744Z,100033.21
2022-08-28T04:31:31.972Z,100036.98
2022-08-28T04:34:05.985Z,100040.73
2022-08-28T04:36:35.796Z,100035.45
2022-08-28T04:39:08.064Z,100037.17
2022-08-28T04:41:38.582Z,100037.22
2022-08-28T04:44:06.538Z,100035.70
2022-08-28T04:46:34.030Z,100037.29
2022-08-28T04:49:01.159Z,100037.48
2022-08-28T04:51:28.780Z,100038.73
2022-08-28T04:53:57.258Z,100042.54
2022-08-28T04:56:24.548Z,100041.15
2022-08-28T04:58:55.089Z,100044.05
2022-08-28T05:01:24.194Z,100041.29
2022-08-28T05:03:58.651Z,100039.71
2022-08-28T05:06:28.630Z,100036.36
2022-08-28T05:09:01.366Z,100042.18
2022-08-28T05:11:34.022Z,100040.23
2022-08-28T05:14:12.672Z,100046.45
2022-08-28T05:16:52.508Z,100048.86
2022-08-28T05:19:20.521Z,100055.44
2022-08-28T05:21:47.613Z,100058.08
2022-08-28T05:24:15.801Z,100059.52
2022-08-28T05:26:43.092Z,100055.21
2022-08-28T05:29:11.696Z,100054.80
2022-08-28T05:31:40.831Z,100055.27
2022-08-28T05:34:09.791Z,100052.80
2022-08-28T05:36:38.989Z,100053.09
2022-08-28T05:39:10.190Z,100053.62
2022-08-28T05:41:41.796Z,100055.98
2022-08-28T05:44:12.041Z,100048.50
2022-08-28T05:46:44.047Z,100057.83
2022-08-28T05:49:12.922Z,100052.46
2022-08-28T05:51:42.251Z,100057.67
2022-08-28T05:54:10.997Z,100060.67
2022-08-28T05:56:40.126Z,100059.27
2022-08-28T05:59:10.304Z,100060.29
2022-08-28T06:01:47.563Z,100060.63
2022-08-28T06:04:22.874Z,100066.61
2022-08-28T06:06:50.992Z,100066.13
2022-08-28T06:09:29.925Z,100066.16
2022-08-28T06:12:02.432Z,100061.94
2022-08-28T06:14:30.616Z,100064.65
2022-08-28T06:16:59.215Z,100065.12
2022-08-28T06:19:29.504Z,100065.48
2022-08-28T06:22:01.348Z,100064.88
2022-08-28T06:24:35.470Z,100065.66
2022-08-28T06:27:02.518Z,100067.46
2022-08-28T06:29:30.364Z,100071.61
2022-08-28T06:32:04.363Z,100071.34
2022-08-28T06:34:32.127Z,100074.02
2022-08-28T06:37:00.149Z,100077.73
2022-08-28T06:39:27.626Z,100075.43
2022-08-28T06:41:54.759Z,100072.27
2022-08-28T06:44:22.420Z,100069.41
2022-08-28T06:46:53.392Z,100069.52
2022-08-28T06:49:22.071Z,100068.48
2022-08-28T06:51:50.030Z,100070.85
2022-08-28T06:54:22.332Z,100071.22
2022-08-28T06:56:54.240Z,100067.84
2022-08-28T06:59:21.621Z,100068.38
2022-08-28T07:01:48.897Z,100065.58
2022-08-28T07:04:16.214Z,100063.14
2022-08-28T07:06:46.561Z,100057.68
2022-08-28T07:09:17.548Z,100054.27
2022-08-28T07:11:46.194Z,100057.42
2022-08-28T07:14:13.571Z,100060.83
2022-08-28T07:16:41.296Z,100057.52
2022-08-28T07:19:11.457Z,100057.82
2022-08-28T07:21:45.194Z,100056.45
2022-08-28T07:24:14.734Z,100057.16
2022-08-28T07:26:47.617Z,100054.27
2022-08-28T07:29:15.517Z,100057.65
2022-08-28T07:31:48.598Z,100055.23
2022-08-28T07:34:19.842Z,100059.91
2022-08-28T07:36:48.188Z,100056.25
2022-08-28T07:39:15.667Z,100056.88
2022-08-28T07:41:43.367Z,100058.39
2022-08-28T07:44:31.934Z,100053.14
2022-08-28T07:47:04.214Z,100053.00
2022-08-28T07:49:34.712Z,100052.85
2022-08-28T07:52:03.337Z,100052.66
2022-08-28T07:54:30.718Z,100055.29
2022-08-28T07:56:57.931Z,100054.17
2022-08-28T07:59:34.168Z,100050.60
2022-08-28T08:02:05.359Z,100053.34
2022-08-28T08:04:36.020Z,100052.30
2022-08-28T08:07:04.889Z,100051.90
2022-08-28T08:09:37.121Z,100050.56
2022-08-28T08:12:05.372Z,100049.86
2022-08-28T08:14:33.175Z,100046.41
2022-08-28T08:17:04.703Z,100049.44
2022-08-28T08:19:36.054Z,100052.59
2022-08-28T08:22:03.635Z,100050.69
2022-08-28T08:24:31.444Z,100051.48
2022-08-28T08:27:01.465Z,100053.05
2022-08-28T08:29:33.415Z,100054.56
2022-08-28T08:32:09.279Z,100051.30
2022-08-28T08:34:45.767Z,100046.05
2022-08-28T08:37:13.789Z,100048.41
2022-08-28T08:39:43.126Z,100044.17
2022-08-28T08:42:29.517Z,100048.85
2022-08-28T08:45:03.829Z,100047.59
2022-08-28T08:47:53.254Z,100048.08
2022-08-28T08:50:29.996Z,100053.82
2022-08-28T08:53:42.177Z,100047.96
2022-08-28T08:56:21.553Z,100034.63
2022-08-28T08:58:53.994Z,100044.93
2022-08-28T09:01:43.875Z,100042.38
2022-08-28T09:04:46.042Z,100038.08
2022-08-28T09:07:43.344Z,100038.11
2022-08-28T09:10:15.387Z,100035.20
2022-08-28T09:13:25.909Z,100017.41
2022-08-28T09:15:56.967Z,100036.73
2022-08-28T09:18:33.688Z,100039.44
2022-08-28T09:21:04.430Z,100041.05
2022-08-28T09:23:31.673Z,100041.52
2022-08-28T09:26:08.778Z,100041.71
2022-08-28T09:28:41.501Z,100045.20
2022-08-28T09:31:15.299Z,100048.03
2022-08-28T09:33:50.902Z,100041.91
2022-08-28T09:36:21.498Z,100043.23
2022-08-28T09:39:23.934Z,100036.98
2022-08-28T09:42:34.063Z,100039.64
2022-08-28T09:45:24.165Z,100037.62
2022-08-28T09:47:56.085Z,100025.63
2022-08-28T09:50:26.361Z,100032.50
2022-08-28T09:53:09.347Z,100032.94
2022-08-28T09:56:11.031Z,100030.01
2022-08-28T09:58:59.592Z,100024.84
2022-08-28T10:01:53.466Z,100025.80
2022-08-28T10:05:12.402Z,100027.76
2022-08-28T10:07:49.063Z,100020.96
2022-08-28T10:10:48.916Z,100022.42
2022-08-28T10:13:23.946Z,100027.59
2022-08-28T10:16:18.581Z,100024.92
2022-08-28T10:19:09.516Z,100027.35
2022-08-28T10:21:51.082Z,100027.64
2022-08-28T10:24:45.931Z,100019.64
2022-08-28T10:27:48.770Z,100019.11
2022-08-28T10:30:21.543Z,100016.16
2022-08-28T10:33:21.269Z,100017.09
2022-08-28T10:36:04.966Z,100012.41
2022-08-28T10:38:42.307Z,100008.99
2022-08-28T10:41:33.852Z,100008.30
2022-08-28T10:44:03.384Z,100003.60
2022-08-28T10:46:45.945Z,100002.81
2022-08-28T10:49:36.501Z,100003.30
2022-08-28T10:52:28.312Z,100005.02
2022-08-28T10:55:23.795Z,100002.37
2022-08-28T10:58:04.250Z,100000.93
2022-08-28T11:00:33.960Z,99999.55
2022-08-28T11:03:22.225Z,99994.73
2022-08-28T11:06:08.235Z,99994.82
2022-08-28T11:08:37.742Z,99994.99
2022-08-28T11:11:34.265Z,99993.89
2022-08-28T11:14:01.873Z,99991.35
2022-08-28T11:16:30.217Z,99992.18
2022-08-28T11:19:17.066Z,99987.80
2022-08-28T11:22:04.062Z,99990.02
2022-08-28T11:24:43.710Z,99988.25
2022-08-28T11:27:23.642Z,99985.01
2022-08-28T11:30:08.982Z,99985.53
2022-08-28T11:32:38.083Z,99984.70
2022-08-28T11:35:20.513Z,99983.02
2022-08-28T11:37:52.302Z,99982.98
2022-08-28T11:40:53.924Z,99984.05
2022-08-28T11:43:23.964Z,99984.09
2022-08-28T11:45:59.089Z,99986.08
2022-08-28T11:48:39.135Z,99986.51
2022-08-28T11:51:28.984Z,99982.53
2022-08-28T11:54:20.768Z,99977.13
2022-08-28T11:57:04.706Z,99972.95
2022-08-28T12:00:03.010Z,99965.63
2022-08-28T12:02:43.538Z,99972.08
2022-08-28T12:05:16.719Z,99971.29
2022-08-28T12:07:50.846Z,99970.39
2022-08-28T12:10:24.316Z,99974.02
2022-08-28T12:13:03.819Z,99974.03
2022-08-28T12:15:31.874Z,99970.05
2022-08-28T12:18:10.660Z,99972.47
2022-08-28T12:20:44.610Z,99973.10
2022-08-28T12:23:34.123Z,99972.62
2022-08-28T12:26:22.935Z,99969.15
2022-08-28T12:29:25.500Z,99971.75
2022-08-28T12:32:12.609Z,99972.52
2022-08-28T12:35:01.619Z,99968.98
2022-08-28T12:37:52.146Z,99967.00
2022-08-28T12:40:29.682Z,99966.46
2022-08-28T12:43:28.247Z,99967.60
2022-08-28T12:46:24.139Z,99967.05
2022-08-28T12:49:03.808Z,99962.14
2022-08-28T12:51:37.186Z,99958.63
2022-08-28T12:54:08.281Z,99957.90
2022-08-28T12:56:38.148Z,99953.39
2022-08-28T12:59:43.689Z,99953.08
2022-08-28T13:02:17.837Z,99949.65
2022-08-28T13:05:09.171Z,99948.45
2022-08-28T13:07:54.729Z,99948.56
2022-08-28T13:10:33.719Z,99939.53
2022-08-28T13:13:10.439Z,99938.92
2022-08-28T13:16:00.930Z,99942.82
2022-08-28T13:18:51.026Z,99944.87
2022-08-28T13:21:19.993Z,99943.92
2022-08-28T13:24:21.279Z,99935.36
2022-08-28T13:27:00.186Z,99931.91
2022-08-28T13:29:27.977Z,99933.61
2022-08-28T13:32:04.849Z,99937.17
2022-08-28T13:34:38.518Z,99936.39
2022-08-28T13:37:47.336Z,99939.54
2022-08-28T13:40:55.788Z,99937.28
2022-08-28T13:43:11.288Z,99936.55
2022-08-28T13:45:44.740Z,99932.08
2022-08-28T13:48:16.297Z,99937.50
2022-08-28T13:50:47.910Z,99934.52
2022-08-28T13:53:19.835Z,99930.45
2022-08-28T13:55:49.508Z,99930.91
2022-08-28T13:58:17.231Z,99931.55
2022-08-28T14:00:47.742Z,99933.10
2022-08-28T14:03:34.755Z,99931.78
2022-08-28T14:06:31.566Z,99930.84
2022-08-28T14:08:59.413Z,99933.48
2022-08-28T14:11:26.632Z,99931.60
2022-08-28T14:13:55.795Z,99934.08
2022-08-28T14:16:25.979Z,99933.38
2022-08-28T14:18:56.401Z,99936.09
2022-08-28T14:21:25.910Z,99934.81
2022-08-28T14:23:53.473Z,99934.80
2022-08-28T14:26:21.368Z,99931.67
2022-08-28T14:28:48.598Z,99928.73
2022-08-28T14:31:15.948Z,99930.66
2022-08-28T14:33:46.294Z,99930.27
2022-08-28T14:36:26.007Z,99926.75
2022-08-28T14:39:00.820Z,99924.73
2022-08-28T14:41:31.969Z,99925.25
2022-08-28T14:43:59.200Z,99927.44
2022-08-28T14:46:34.029Z,99930.24
2022-08-28T14:49:09.177Z,99931.94
2022-08-28T14:51:41.557Z,99934.70
2022-08-28T14:54:12.420Z,99936.59
2022-08-28T14:56:42.935Z,99938.05
2022-08-28T14:59:23.668Z,99939.86
2022-08-28T15:01:54.816Z,99935.21
2022-08-28T15:04:29.151Z,99935.46
2022-08-28T15:07:12.590Z,99940.79
2022-08-28T15:09:42.755Z,99947.27
2022-08-28T15:12:11.185Z,99947.90
2022-08-28T15:14:51.912Z,99944.04
2022-08-28T15:17:23.131Z,99942.70
2022-08-28T15:20:03.104Z,99945.64
2022-08-28T15:22:30.228Z,99945.52
2022-08-28T15:24:58.176Z,99947.42
2022-08-28T15:27:29.139Z,99943.83
2022-08-28T15:29:56.503Z,99943.73
2022-08-28T15:32:25.143Z,99942.96
2022-08-28T15:34:53.056Z,99943.26
2022-08-28T15:37:20.234Z,99946.61
2022-08-28T15:40:07.144Z,99953.45
2022-08-28T15:42:34.239Z,99950.91
2022-08-28T15:45:01.429Z,99947.87
2022-08-28T15:47:29.363Z,99950.88
2022-08-28T15:49:57.110Z,99947.34
2022-08-28T15:52:25.204Z,99947.64
2022-08-28T15:54:53.233Z,99946.34
2022-08-28T15:57:20.382Z,99943.16
2022-08-28T15:59:50.003Z,99941.64
2022-08-28T16:02:21.016Z,99943.52
2022-08-28T16:04:48.779Z,99944.92
2022-08-28T16:07:18.715Z,99939.54
2022-08-28T16:09:50.073Z,99940.40
2022-08-28T16:12:17.633Z,99943.50
2022-08-28T16:14:44.902Z,99942.60
2022-08-28T16:17:11.964Z,99938.45
2022-08-28T16:19:42.496Z,99940.16
2022-08-28T16:22:15.304Z,99942.38
2022-08-28T16:24:43.920Z,99943.46
2022-08-28T16:27:15.494Z,99943.91
2022-08-28T16:29:45.284Z,99947.44
2022-08-28T16:32:12.729Z,99948.52
2022-08-28T16:34:39.995Z,99946.16
2022-08-28T16:37:07.777Z,99947.50
2022-08-28T16:39:36.113Z,99952.33
2022-08-28T16:42:03.907Z,99939.55
2022-08-28T16:44:31.087Z,99949.07
2022-08-28T16:46:58.134Z,99950.80
2022-08-28T16:49:25.276Z,99950.90
2022-08-28T16:51:52.638Z,99956.55
2022-08-28T16:54:20.970Z,99957.60
2022-08-28T16:56:48.139Z,99960.41
2022-08-28T16:59:19.927Z,99961.69
2022-08-28T17:01:52.975Z,99964.98
2022-08-28T17:04:21.182Z,99971.42
2022-08-28T17:06:48.413Z,99975.19
2022-08-28T17:09:15.685Z,99980.35
2022-08-28T17:11:46.153Z,99985.66
2022-08-28T17:14:21.629Z,99993.34
2022-08-28T17:16:49.447Z,100001.15
2022-08-28T17:19:18.047Z,100006.05
2022-08-28T17:22:04.057Z,100011.64
2022-08-28T17:24:31.105Z,100019.10
2022-08-28T17:27:01.982Z,100020.29
2022-08-28T17:29:33.378Z,100024.71
2022-08-28T17:32:00.582Z,100025.60
2022-08-28T17:34:30.250Z,100029.16
2022-08-28T17:36:57.778Z,100031.73
2022-08-28T17:39:25.252Z,100029.70
2022-08-28T17:41:52.358Z,100034.88
2022-08-28T17:44:19.541Z,100039.27
2022-08-28T17:46:46.754Z,100043.31
2022-08-28T17:49:15.042Z,100046.77
2022-08-28T17:51:44.317Z,100053.71
2022-08-28T17:54:21.320Z,100056.54
2022-08-28T17:56:51.473Z,100059.36
2022-08-28T17:59:32.903Z,100058.48
2022-08-28T18:02:06.164Z,100058.61
2022-08-28T18:04:35.826Z,100065.79
2022-08-28T18:07:02.939Z,100067.32
2022-08-28T18:09:30.268Z,100070.68
2022-08-28T18:11:57.303Z,100065.86
2022-08-28T18:14:24.388Z,100068.09
2022-08-28T18:16:52.142Z,100069.29
2022-08-28T18:19:19.634Z,100071.15
2022-08-28T18:21:46.722Z,100076.06
2022-08-28T18:24:13.853Z,100074.69
2022-08-28T18:26:42.430Z,100076.70
2022-08-28T18:29:11.906Z,100079.05
2022-08-28T18:31:41.054Z,100079.85
2022-08-28T18:34:09.845Z,100082.53
2022-08-28T18:36:42.988Z,100079.17
2022-08-28T18:39:11.505Z,100085.06
2022-08-28T18:41:44.588Z,100085.17
2022-08-28T18:44:13.547Z,100092.15
2022-08-28T18:46:43.321Z,100088.48
2022-08-28T18:49:11.584Z,100092.95
2022-08-28T18:51:41.185Z,100095.61
2022-08-28T18:54:09.000Z,100098.15
2022-08-28T18:56:38.383Z,100100.45
2022-08-28T18:59:06.973Z,100108.22
2022-08-28T19:01:35.661Z,100111.33
2022-08-28T19:04:03.807Z,100117.04
2022-08-28T19:06:35.814Z,100116.81
2022-08-28T19:09:05.070Z,100113.69
2022-08-28T19:11:35.328Z,100113.73
2022-08-28T19:14:03.596Z,100112.45
2022-08-28T19:16:34.772Z,100107.23
2022-08-28T19:19:03.359Z,100114.96
2022-08-28T19:21:32.637Z,100118.41
2022-08-28T19:24:00.237Z,100124.31
2022-08-28T19:26:49.889Z,100125.09
2022-08-28T19:29:16.991Z,100130.63
2022-08-28T19:31:46.894Z,100131.20
2022-08-28T19:34:14.034Z,100136.19
2022-08-28T19:36:41.502Z,100126.32
2022-08-28T19:39:08.736Z,100140.17
2022-08-28T19:41:38.962Z,100143.95
2022-08-28T19:44:06.978Z,100139.75
2022-08-28T19:46:37.268Z,100146.87
2022-08-28T19:49:06.766Z,100149.89
2022-08-28T19:51:38.886Z,100151.17
2022-08-28T19:54:10.822Z,100153.95
2022-08-28T19:56:42.106Z,100154.84
2022-08-28T19:59:10.044Z,100155.32
2022-08-28T20:01:44.870Z,100153.47
2022-08-28T20:04:17.057Z,100156.08
2022-08-28T20:06:46.422Z,100157.52
2022-08-28T20:09:16.900Z,100160.24
2022-08-28T20:11:46.379Z,100164.65
2022-08-28T20:14:16.136Z,100173.11
2022-08-28T20:16:46.113Z,100177.97
2022-08-28T20:19:14.355Z,100181.60
2022-08-28T20:21:46.515Z,100179.90
2022-08-28T20:24:23.020Z,100182.09
2022-08-28T20:26:52.590Z,100184.11
2022-08-28T20:29:19.731Z,100181.14
2022-08-28T20:31:48.163Z,100181.57
2022-08-28T20:34:18.613Z,100180.27
2022-08-28T20:36:47.475Z,100178.45
2022-08-28T20:39:19.020Z,100183.52
2022-08-28T20:41:49.092Z,100184.82
2022-08-28T20:44:19.677Z,100182.63
2022-08-28T20:46:51.523Z,100180.46
2022-08-28T20:49:26.299Z,100181.44
2022-08-28T20:51:58.362Z,100182.83
2022-08-28T20:54:41.078Z,100181.25
2022-08-28T20:57:13.312Z,100182.17
2022-08-28T20:59:43.732Z,100179.45
2022-08-28T21:02:18.061Z,100184.13
2022-08-28T21:04:47.173Z,100187.88
2022-08-28T21:07:17.838Z,100189.55
2022-08-28T21:10:05.805Z,100189.45
2022-08-28T21:12:38.704Z,100192.89
2022-08-28T21:15:11.859Z,100193.39
2022-08-28T21:17:40.625Z,100190.80
2022-08-28T21:20:19.239Z,100190.95
2022-08-28T21:22:53.532Z,100189.83
2022-08-28T21:25:27.418Z,100188.30
2022-08-28T21:27:57.309Z,100187.89
2022-08-28T21:30:29.726Z,100188.92
2022-08-28T21:33:00.758Z,100188.75
2022-08-28T21:35:28.870Z,100191.54
2022-08-28T21:37:57.040Z,100191.54
2022-08-28T21:40:27.608Z,100195.98
2022-08-28T21:42:56.586Z,100197.35
2022-08-28T21:45:23.847Z,100197.65
2022-08-28T21:47:51.879Z,100202.14
2022-08-28T21:50:20.169Z,100192.64
2022-08-28T21:52:47.192Z,100201.98
2022-08-28T21:55:15.659Z,100200.27
2022-08-28T21:57:42.903Z,100202.13
2022-08-28T22:00:17.300Z,100202.90
2022-08-28T22:02:44.686Z,100200.48
2022-08-28T22:05:12.322Z,100201.84
2022-08-28T22:07:39.901Z,100204.20
2022-08-28T22:10:08.731Z,100207.23
2022-08-28T22:12:35.849Z,100208.81
2022-08-28T22:15:05.627Z,100207.79
2022-08-28T22:17:32.827Z,100207.81
2022-08-28T22:19:59.862Z,100208.45
2022-08-28T22:22:45.260Z,100210.10
2022-08-28T22:25:12.717Z,100208.77
2022-08-28T22:27:39.814Z,100209.23
2022-08-28T22:30:07.940Z,100212.71
2022-08-28T22:32:35.034Z,100213.39
2022-08-28T22:35:02.506Z,100214.02
2022-08-28T22:37:29.531Z,100214.20
2022-08-28T22:39:57.628Z,100213.14
2022-08-28T22:42:24.810Z,100214.90
2022-08-28T22:44:51.888Z,100213.73
2022-08-28T22:47:19.158Z,100213.45
2022-08-28T22:49:46.683Z,100215.80
2022-08-28T22:52:14.934Z,100215.89
2022-08-28T22:54:43.219Z,100215.35
2022-08-28T22:57:10.579Z,100210.36
2022-08-28T22:59:37.655Z,100210.84
2022-08-28T23:02:04.754Z,100206.96
2022-08-28T23:04:31.873Z,100211.73
2022-08-28T23:06:59.246Z,100210.90
2022-08-28T23:09:27.062Z,100212.27
2022-08-28T23:11:54.108Z,100210.21
2022-08-28T23:14:22.082Z,100213.84
2022-08-28T23:16:50.403Z,100214.32
2022-08-28T23:19:18.264Z,100214.81
2022-08-28T23:21:45.704Z,100212.39
2022-08-28T23:24:15.494Z,100208.16
2022-08-28T23:26:44.474Z,100212.44
2022-08-28T23:29:12.246Z,100213.95
2022-08-28T23:31:39.717Z,100216.48
2022-08-28T23:34:07.632Z,100214.93
2022-08-28T23:36:36.622Z,100215.62
2022-08-28T23:39:04.825Z,100217.39
2022-08-28T23:41:33.394Z,100211.82
2022-08-28T23:44:03.224Z,100211.38
2022-08-28T23:46:33.050Z,100211.36
2022-08-28T23:49:00.360Z,100213.85
2022-08-28T23:51:27.563Z,100216.84
2022-08-28T23:53:55.308Z,100221.14
2022-08-28T23:56:23.170Z,100224.86
2022-08-28T23:58:55.442Z,100224.06
